createdAt,value
2019-05-20T00:01:08.509Z,100989.28
2019-05-20T00:03:37.968Z,100998.70
2019-05-20T00:06:07.677Z,100997.02
2019-05-20T00:08:37.221Z,100995.67
2019-05-20T00:11:06.779Z,100992.12
2019-05-20T00:13:36.327Z,100989.42
2019-05-20T00:16:05.806Z,100989.91
2019-05-20T00:18:35.226Z,100985.02
2019-05-20T00:21:04.762Z,100983.81
2019-05-20T00:23:34.210Z,100985.16
2019-05-20T00:26:03.716Z,100981.23
2019-05-20T00:28:33.604Z,100984.78
2019-05-20T00:31:03.113Z,100980.41
2019-05-20T00:33:32.658Z,100987.95
2019-05-20T00:36:02.155Z,100978.68
2019-05-20T00:38:31.635Z,100980.41
2019-05-20T00:41:01.072Z,100977.82
2019-05-20T00:43:30.560Z,100975.61
2019-05-20T00:46:00.036Z,100985.03
2019-05-20T00:48:29.473Z,100984.69
2019-05-20T00:50:59.110Z,100987.38
2019-05-20T00:53:28.529Z,100986.53
2019-05-20T00:55:58.290Z,100980.28
2019-05-20T00:58:27.862Z,100975.27
2019-05-20T01:00:57.324Z,100968.66
2019-05-20T01:03:26.801Z,100973.55
2019-05-20T01:05:56.302Z,100975.38
2019-05-20T01:08:25.837Z,100972.34
2019-05-20T01:10:55.266Z,100965.96
2019-05-20T01:13:24.934Z,100952.16
2019-05-20T01:15:54.397Z,100952.16
2019-05-20T01:18:23.863Z,100953.13
2019-05-20T01:20:54.145Z,100952.16
2019-05-20T01:23:23.583Z,100946.41
2019-05-20T01:25:53.084Z,100946.41
2019-05-20T01:28:22.567Z,100942.85
2019-05-20T01:30:52.056Z,100936.64
2019-05-20T01:33:21.489Z,100933.09
2019-05-20T01:35:51.054Z,100931.74
2019-05-20T01:38:20.466Z,100929.05
2019-05-20T01:40:49.891Z,100928.19
2019-05-20T01:43:19.334Z,100924.64
2019-05-20T01:45:48.755Z,100928.19
2019-05-20T01:48:18.197Z,100921.95
2019-05-20T01:50:47.675Z,100918.40
2019-05-20T01:53:17.152Z,100913.39
2019-05-20T01:55:46.611Z,100919.26
2019-05-20T01:58:16.136Z,100917.42
2019-05-20T02:00:45.702Z,100913.88
2019-05-20T02:03:30.341Z,100914.73
2019-05-20T02:05:46.473Z,100908.41
2019-05-20T02:08:15.979Z,100913.88
2019-05-20T02:10:45.461Z,100914.25
2019-05-20T02:13:14.978Z,100911.67
2019-05-20T02:15:52.525Z,100905.31
2019-05-20T02:18:21.957Z,100904.83
2019-05-20T02:20:51.412Z,100896.75
2019-05-20T02:23:20.944Z,100891.86
2019-05-20T02:25:51.252Z,100893.69
2019-05-20T02:28:20.678Z,100895.41
2019-05-20T02:30:50.281Z,100886.47
2019-05-20T02:33:19.674Z,100885.98
2019-05-20T02:35:49.080Z,100874.36
2019-05-20T02:38:18.531Z,100869.84
2019-05-20T02:40:47.966Z,100873.02
2019-05-20T02:43:17.533Z,100878.77
2019-05-20T02:45:47.024Z,100872.05
2019-05-20T02:48:16.462Z,100876.08
2019-05-20T02:50:45.968Z,100880.95
2019-05-20T02:53:15.470Z,100881.47
2019-05-20T02:55:44.962Z,100883.30
2019-05-20T02:58:14.380Z,100876.08
2019-05-20T03:00:43.842Z,100878.25
2019-05-20T03:03:13.237Z,100872.05
2019-05-20T03:05:42.688Z,100883.16
2019-05-20T03:08:12.192Z,100875.08
2019-05-20T03:10:41.700Z,100872.88
2019-05-20T03:13:11.147Z,100872.05
2019-05-20T03:15:40.616Z,100874.11
2019-05-20T03:18:10.064Z,100873.62
2019-05-20T03:20:39.634Z,100879.48
2019-05-20T03:23:09.152Z,100877.66
2019-05-20T03:25:38.567Z,100881.69
2019-05-20T03:28:08.029Z,100883.87
2019-05-20T03:30:37.504Z,100893.66
2019-05-20T03:33:06.958Z,100881.17
2019-05-20T03:35:36.404Z,100885.59
2019-05-20T03:38:06.021Z,100882.41
2019-05-20T03:40:35.440Z,100873.84
2019-05-20T03:43:05.005Z,100864.42
2019-05-20T03:45:34.514Z,100860.39
2019-05-20T03:48:04.148Z,100859.38
2019-05-20T03:50:33.574Z,100846.30
2019-05-20T03:53:03.141Z,100841.77
2019-05-20T03:55:32.642Z,100828.31
2019-05-20T03:58:02.143Z,100817.03
2019-05-20T04:00:50.688Z,100819.72
2019-05-20T04:03:20.105Z,100830.00
2019-05-20T04:05:49.516Z,100837.22
2019-05-20T04:08:19.080Z,100842.60
2019-05-20T04:10:48.504Z,100843.13
2019-05-20T04:13:18.120Z,100853.37
2019-05-20T04:15:47.600Z,100861.44
2019-05-20T04:18:17.115Z,100863.30
2019-05-20T04:20:46.623Z,100864.51
2019-05-20T04:23:16.136Z,100869.41
2019-05-20T04:25:45.574Z,100874.78
2019-05-20T04:28:15.047Z,100886.91
2019-05-20T04:30:44.630Z,100877.48
2019-05-20T04:33:14.054Z,100882.23
2019-05-20T04:35:43.502Z,100876.84
2019-05-20T04:38:12.960Z,100879.05
2019-05-20T04:40:42.530Z,100873.03
2019-05-20T04:43:11.983Z,100862.75
2019-05-20T04:45:41.440Z,100870.34
2019-05-20T04:48:13.663Z,100856.39
2019-05-20T04:50:42.042Z,100854.91
2019-05-20T04:53:11.679Z,100860.66
2019-05-20T04:55:41.082Z,100854.41
2019-05-20T04:58:10.508Z,100852.95
2019-05-20T05:00:51.990Z,100862.72
2019-05-20T05:03:21.512Z,100873.00
2019-05-20T05:05:51.968Z,100859.91
2019-05-20T05:08:22.160Z,100855.98
2019-05-20T05:10:51.798Z,100852.17
2019-05-20T05:13:21.567Z,100854.45
2019-05-20T05:15:51.011Z,100848.31
2019-05-20T05:18:20.696Z,100861.38
2019-05-20T05:20:50.428Z,100850.82
2019-05-20T05:23:20.239Z,100866.23
2019-05-20T05:25:49.778Z,100879.92
2019-05-20T05:28:19.329Z,100878.94
2019-05-20T05:30:49.223Z,100852.34
2019-05-20T05:33:18.769Z,100856.76
2019-05-20T05:35:53.378Z,100848.19
2019-05-20T05:38:19.489Z,100845.50
2019-05-20T05:40:48.973Z,100845.12
2019-05-20T05:43:18.584Z,100837.75
2019-05-20T05:45:48.041Z,100834.72
2019-05-20T05:48:17.549Z,100839.10
2019-05-20T05:50:47.017Z,100841.67
2019-05-20T05:53:16.439Z,100836.63
2019-05-20T05:55:45.916Z,100836.51
2019-05-20T05:58:15.427Z,100835.38
2019-05-20T06:00:44.923Z,100837.07
2019-05-20T06:03:14.367Z,100837.29
2019-05-20T06:05:43.906Z,100835.45
2019-05-20T06:08:13.343Z,100840.20
2019-05-20T06:10:42.868Z,100832.48
2019-05-20T06:13:12.340Z,100832.34
2019-05-20T06:15:41.828Z,100835.77
2019-05-20T06:18:11.341Z,100827.55
2019-05-20T06:20:40.834Z,100827.91
2019-05-20T06:23:10.275Z,100836.70
2019-05-20T06:25:39.808Z,100848.67
2019-05-20T06:28:09.217Z,100844.15
2019-05-20T06:30:45.952Z,100844.03
2019-05-20T06:33:15.605Z,100847.55
2019-05-20T06:35:45.213Z,100846.72
2019-05-20T06:38:33.719Z,100852.11
2019-05-20T06:41:03.739Z,100849.91
2019-05-20T06:43:33.615Z,100856.27
2019-05-20T06:46:03.147Z,100854.44
2019-05-20T06:48:32.596Z,100843.81
2019-05-20T06:51:02.079Z,100833.86
2019-05-20T06:53:31.544Z,100842.80
2019-05-20T06:56:00.989Z,100850.88
2019-05-20T06:58:31.320Z,100853.95
2019-05-20T07:01:00.903Z,100849.91
2019-05-20T07:03:30.332Z,100852.60
2019-05-20T07:05:59.764Z,100737.58
2019-05-20T07:08:29.282Z,100852.45
2019-05-20T07:10:58.797Z,100850.24
2019-05-20T07:13:28.369Z,100841.18
2019-05-20T07:15:57.806Z,100848.41
2019-05-20T07:18:27.650Z,100841.82
2019-05-20T07:20:57.064Z,100850.77
2019-05-20T07:23:26.645Z,100839.25
2019-05-20T07:25:56.120Z,100838.27
2019-05-20T07:28:25.581Z,100833.03
2019-05-20T07:30:55.008Z,100831.69
2019-05-20T07:33:24.437Z,100833.64
2019-05-20T07:35:53.940Z,100827.05
2019-05-20T07:38:23.516Z,100836.97
2019-05-20T07:40:53.006Z,100826.34
2019-05-20T07:43:22.481Z,100839.45
2019-05-20T07:45:52.575Z,100845.69
2019-05-20T07:48:22.248Z,100855.77
2019-05-20T07:50:52.124Z,100849.52
2019-05-20T07:53:21.983Z,100854.53
2019-05-20T07:56:00.203Z,100859.06
2019-05-20T07:58:33.756Z,100860.07
2019-05-20T08:01:03.554Z,100866.66
2019-05-20T08:03:32.977Z,100858.36
2019-05-20T08:06:02.520Z,100855.66
2019-05-20T08:08:32.208Z,100861.42
2019-05-20T08:11:01.653Z,100858.23
2019-05-20T08:13:31.202Z,100856.89
2019-05-20T08:16:00.687Z,100862.28
2019-05-20T08:18:30.227Z,100862.12
2019-05-20T08:20:59.675Z,100856.73
2019-05-20T08:23:29.166Z,100856.25
2019-05-20T08:25:58.670Z,100853.56
2019-05-20T08:28:28.348Z,100855.77
2019-05-20T08:30:58.011Z,100851.57
2019-05-20T08:33:27.535Z,100859.16
2019-05-20T08:35:57.043Z,100851.94
2019-05-20T08:38:26.536Z,100859.02
2019-05-20T08:40:55.967Z,100857.18
2019-05-20T08:43:25.384Z,100856.20
2019-05-20T08:45:54.889Z,100845.77
2019-05-20T08:48:24.423Z,100847.48
2019-05-20T08:50:53.847Z,100851.74
2019-05-20T08:53:23.333Z,100853.95
2019-05-20T08:55:52.755Z,100856.00
2019-05-20T08:58:22.190Z,100846.94
2019-05-20T09:00:51.718Z,100845.59
2019-05-20T09:03:21.150Z,100840.20
2019-05-20T09:05:50.626Z,100837.84
2019-05-20T09:08:20.077Z,100840.05
2019-05-20T09:10:49.559Z,100840.91
2019-05-20T09:13:19.040Z,100841.89
2019-05-20T09:15:48.485Z,100838.70
2019-05-20T09:18:17.972Z,100837.36
2019-05-20T09:20:47.482Z,100848.14
2019-05-20T09:23:17.043Z,100840.91
2019-05-20T09:25:46.499Z,100839.19
2019-05-20T09:28:16.008Z,100836.50
2019-05-20T09:30:45.842Z,100835.03
2019-05-20T09:33:16.311Z,100832.34
2019-05-20T09:35:45.794Z,100835.38
2019-05-20T09:38:20.868Z,100831.81
2019-05-20T09:40:48.222Z,100834.88
2019-05-20T09:43:17.762Z,100833.53
2019-05-20T09:45:47.211Z,100833.91
2019-05-20T09:48:16.659Z,100847.72
2019-05-20T09:50:46.143Z,100833.53
2019-05-20T09:53:15.607Z,100844.69
2019-05-20T09:55:45.134Z,100845.02
2019-05-20T09:58:14.628Z,100842.81
2019-05-20T10:00:44.107Z,100842.81
2019-05-20T10:03:13.590Z,100849.22
2019-05-20T10:05:43.107Z,100842.11
2019-05-20T10:08:12.572Z,100838.06
2019-05-20T10:10:42.134Z,100840.77
2019-05-20T10:13:11.693Z,100840.77
2019-05-20T10:15:41.256Z,100840.77
2019-05-20T10:18:10.737Z,100836.38
2019-05-20T10:20:41.103Z,100838.06
2019-05-20T10:23:10.612Z,100839.41
2019-05-20T10:25:40.125Z,100841.25
2019-05-20T10:28:09.727Z,100836.38
2019-05-20T10:30:39.203Z,100836.87
2019-05-20T10:33:10.244Z,100836.50
2019-05-20T10:35:39.835Z,100835.52
2019-05-20T10:38:10.489Z,100826.58
2019-05-20T10:40:39.942Z,100826.73
2019-05-20T10:43:09.389Z,100824.03
2019-05-20T10:45:38.881Z,100825.38
2019-05-20T10:48:09.134Z,100818.64
2019-05-20T10:50:38.795Z,100815.09
2019-05-20T10:53:08.199Z,100820.48
2019-05-20T10:55:37.701Z,100821.46
2019-05-20T10:58:07.128Z,100820.60
2019-05-20T11:00:36.655Z,100820.60
2019-05-20T11:03:06.160Z,100815.73
2019-05-20T11:05:35.589Z,100813.52
2019-05-20T11:08:05.028Z,100812.52
2019-05-20T11:10:34.516Z,100817.57
2019-05-20T11:13:04.092Z,100812.18
2019-05-20T11:15:33.528Z,100812.67
2019-05-20T11:18:03.046Z,100805.56
2019-05-20T11:20:32.564Z,100805.56
2019-05-20T11:23:02.024Z,100802.05
2019-05-20T11:25:31.688Z,100807.43
2019-05-20T11:28:01.500Z,100806.57
2019-05-20T11:30:30.989Z,100800.81
2019-05-20T11:33:00.555Z,100810.13
2019-05-20T11:35:29.996Z,100813.64
2019-05-20T11:37:59.458Z,100808.78
2019-05-20T11:40:29.024Z,100807.06
2019-05-20T11:42:58.487Z,100805.71
2019-05-20T11:45:28.078Z,100802.65
2019-05-20T11:47:57.524Z,100812.94
2019-05-20T11:50:27.027Z,100807.43
2019-05-20T11:52:56.443Z,100802.16
2019-05-20T11:55:26.012Z,100804.86
2019-05-20T11:57:55.515Z,100802.65
2019-05-20T12:00:25.491Z,100804.48
2019-05-20T12:02:55.002Z,100802.65
2019-05-20T12:05:24.488Z,100805.01
2019-05-20T12:07:53.990Z,100808.04
2019-05-20T12:10:23.439Z,100801.79
2019-05-20T12:12:52.989Z,100802.80
2019-05-20T12:15:22.653Z,100809.87
2019-05-20T12:17:55.111Z,100809.05
2019-05-20T12:20:24.549Z,100805.01
2019-05-20T12:22:54.085Z,100810.73
2019-05-20T12:25:23.557Z,100804.00
2019-05-20T12:27:52.990Z,100813.43
2019-05-20T12:30:22.780Z,100809.39
2019-05-20T12:33:15.505Z,100804.86
2019-05-20T12:35:23.487Z,100802.16
2019-05-20T12:37:52.970Z,100800.81
2019-05-20T12:40:22.531Z,100803.51
2019-05-20T12:42:52.026Z,100803.39
2019-05-20T12:45:21.573Z,100804.22
2019-05-20T12:47:51.082Z,100800.17
2019-05-20T12:50:21.079Z,100796.50
2019-05-20T12:52:50.554Z,100799.69
2019-05-20T12:55:20.096Z,100801.40
2019-05-20T12:57:49.530Z,100804.09
2019-05-20T13:00:19.631Z,100809.48
2019-05-20T13:02:49.044Z,100811.17
2019-05-20T13:05:20.287Z,100812.03
2019-05-20T13:07:49.805Z,100809.00
2019-05-20T13:10:31.276Z,100808.84
2019-05-20T13:12:50.662Z,100819.13
2019-05-20T13:15:20.351Z,100816.44
2019-05-20T13:17:49.918Z,100815.58
2019-05-20T13:20:19.712Z,100812.88
2019-05-20T13:22:49.173Z,100812.39
2019-05-20T13:25:18.734Z,100807.86
2019-05-20T13:27:48.184Z,100814.60
2019-05-20T13:30:20.353Z,100811.91
2019-05-20T13:32:49.792Z,100807.34
2019-05-20T13:35:19.434Z,100806.86
2019-05-20T13:37:48.905Z,100813.59
2019-05-20T13:40:19.275Z,100803.83
2019-05-20T13:42:48.724Z,100807.86
2019-05-20T13:45:19.679Z,100805.17
2019-05-20T13:47:49.454Z,100801.62
2019-05-20T13:50:19.270Z,100809.70
2019-05-20T13:52:48.723Z,100798.92
2019-05-20T13:55:18.996Z,100803.83
2019-05-20T13:57:48.502Z,100800.27
2019-05-20T14:00:19.160Z,100805.17
2019-05-20T14:02:48.716Z,100805.66
2019-05-20T14:05:18.572Z,100802.11
2019-05-20T14:07:48.084Z,100797.58
2019-05-20T14:10:17.665Z,100804.31
2019-05-20T14:12:47.095Z,100798.92
2019-05-20T14:15:16.768Z,100795.86
2019-05-20T14:17:46.592Z,100794.02
2019-05-20T14:20:17.452Z,100799.91
2019-05-20T14:22:46.993Z,100804.80
2019-05-20T14:25:16.481Z,100797.70
2019-05-20T14:27:45.961Z,100800.91
2019-05-20T14:30:15.925Z,100802.26
2019-05-20T14:32:45.437Z,100808.47
2019-05-20T14:35:15.304Z,100798.55
2019-05-20T14:37:44.757Z,100800.91
2019-05-20T14:40:14.414Z,100797.70
2019-05-20T14:42:43.937Z,100790.95
2019-05-20T14:45:13.614Z,100792.30
2019-05-20T14:47:43.142Z,100791.33
2019-05-20T14:50:12.973Z,100791.33
2019-05-20T14:52:42.456Z,100796.23
2019-05-20T14:55:12.019Z,100799.41
2019-05-20T14:57:41.517Z,100798.06
2019-05-20T15:00:11.839Z,100791.33
2019-05-20T15:02:42.226Z,100789.98
2019-05-20T15:05:12.151Z,100792.19
2019-05-20T15:07:41.623Z,100795.73
2019-05-20T15:10:11.766Z,100789.00
2019-05-20T15:12:41.257Z,100786.64
2019-05-20T15:15:11.285Z,100785.30
2019-05-20T15:17:40.984Z,100777.21
2019-05-20T15:20:10.777Z,100742.93
2019-05-20T15:22:40.382Z,100773.88
2019-05-20T15:25:10.258Z,100786.00
2019-05-20T15:27:40.034Z,100780.49
2019-05-20T15:30:09.846Z,100786.74
2019-05-20T15:32:39.350Z,100780.70
2019-05-20T15:35:09.752Z,100782.39
2019-05-20T15:37:39.367Z,100783.62
2019-05-20T15:40:09.466Z,100787.17
2019-05-20T15:42:38.940Z,100792.89
2019-05-20T15:45:08.874Z,100791.55
2019-05-20T15:47:38.355Z,100790.60
2019-05-20T15:50:10.206Z,100788.77
2019-05-20T15:52:39.872Z,100784.32
2019-05-20T15:55:09.597Z,100780.19
2019-05-20T15:57:39.121Z,100780.28
2019-05-20T16:00:09.480Z,100779.42
2019-05-20T16:02:39.082Z,100780.77
2019-05-20T16:05:09.122Z,100775.90
2019-05-20T16:07:38.558Z,100778.93
2019-05-20T16:10:08.759Z,100778.08
2019-05-20T16:12:38.184Z,100772.19
2019-05-20T16:15:08.054Z,100771.34
2019-05-20T16:17:37.523Z,100627.63
2019-05-20T16:20:07.610Z,100773.09
2019-05-20T16:22:37.228Z,100775.78
2019-05-20T16:25:07.592Z,100773.94
2019-05-20T16:27:37.051Z,100770.76
2019-05-20T16:30:07.651Z,100777.13
2019-05-20T16:32:37.219Z,100774.80
2019-05-20T16:35:07.244Z,100776.64
2019-05-20T16:37:36.805Z,100788.28
2019-05-20T16:40:07.643Z,100786.07
2019-05-20T16:42:37.202Z,100792.32
2019-05-20T16:45:11.345Z,100791.46
2019-05-20T16:47:38.833Z,100790.11
2019-05-20T16:50:09.945Z,100789.10
2019-05-20T16:52:39.796Z,100798.53
2019-05-20T16:55:09.679Z,100792.81
2019-05-20T16:57:39.171Z,100798.53
2019-05-20T17:00:29.323Z,100806.99
2019-05-20T17:02:40.847Z,100805.28
2019-05-20T17:05:10.457Z,100793.67
2019-05-20T17:07:40.218Z,100804.78
2019-05-20T17:10:10.377Z,100802.58
2019-05-20T17:12:39.943Z,100795.84
2019-05-20T17:15:09.978Z,100801.60
2019-05-20T17:17:39.538Z,100799.77
2019-05-20T17:20:09.670Z,100796.06
2019-05-20T17:22:39.481Z,100803.16
2019-05-20T17:25:09.096Z,100800.84
2019-05-20T17:27:38.765Z,100785.00
2019-05-20T17:30:08.679Z,100788.55
2019-05-20T17:32:38.190Z,100795.66
2019-05-20T17:35:07.998Z,100789.26
2019-05-20T17:37:37.562Z,100783.01
2019-05-20T17:40:07.835Z,100780.84
2019-05-20T17:42:37.405Z,100779.33
2019-05-20T17:45:07.897Z,100788.28
2019-05-20T17:47:37.448Z,100791.46
2019-05-20T17:50:07.891Z,100788.28
2019-05-20T17:52:37.395Z,100786.07
2019-05-20T17:55:07.457Z,100788.28
2019-05-20T17:57:37.156Z,100792.32
2019-05-20T18:00:08.803Z,100788.61
2019-05-20T18:02:38.365Z,100789.75
2019-05-20T18:05:08.665Z,100799.55
2019-05-20T18:07:38.213Z,100795.51
2019-05-20T18:10:08.867Z,100799.70
2019-05-20T18:12:38.400Z,100806.08
2019-05-20T18:15:08.381Z,100806.08
2019-05-20T18:17:37.838Z,100820.53
2019-05-20T18:20:07.705Z,100820.20
2019-05-20T18:22:37.424Z,100821.55
2019-05-20T18:25:07.468Z,100814.44
2019-05-20T18:27:36.981Z,100823.02
2019-05-20T18:30:06.774Z,100829.75
2019-05-20T18:32:38.510Z,100828.06
2019-05-20T18:35:07.831Z,100829.91
2019-05-20T18:37:37.853Z,100827.70
2019-05-20T18:40:14.021Z,100834.09
2019-05-20T18:42:38.969Z,100835.45
2019-05-20T18:45:09.046Z,100839.58
2019-05-20T18:47:38.613Z,100838.23
2019-05-20T18:50:08.456Z,100842.77
2019-05-20T18:52:37.961Z,100841.08
2019-05-20T18:55:08.001Z,100846.59
2019-05-20T18:57:37.539Z,100850.63
2019-05-20T19:00:08.328Z,100849.28
2019-05-20T19:02:37.855Z,100850.78
2019-05-20T19:05:07.971Z,100849.44
2019-05-20T19:07:37.545Z,100851.27
2019-05-20T19:10:07.463Z,100845.52
2019-05-20T19:12:37.116Z,100845.17
2019-05-20T19:15:07.342Z,100846.52
2019-05-20T19:17:37.317Z,100850.34
2019-05-20T19:20:07.206Z,100854.23
2019-05-20T19:22:36.739Z,100849.86
2019-05-20T19:25:07.814Z,100859.41
2019-05-20T19:27:37.281Z,100858.55
2019-05-20T19:30:07.354Z,100857.72
2019-05-20T19:32:36.852Z,100856.86
2019-05-20T19:35:06.484Z,100859.67
2019-05-20T19:37:36.731Z,100859.34
2019-05-20T19:40:07.810Z,100857.63
2019-05-20T19:42:37.653Z,100862.15
2019-05-20T19:45:07.467Z,100859.98
2019-05-20T19:47:36.957Z,100857.40
2019-05-20T19:50:06.604Z,100860.58
2019-05-20T19:52:36.269Z,100854.00
2019-05-20T19:55:06.075Z,100855.83
2019-05-20T19:57:35.642Z,100844.20
2019-05-20T20:00:05.657Z,100846.03
2019-05-20T20:02:35.760Z,100851.08
2019-05-20T20:05:06.234Z,100846.67
2019-05-20T20:07:35.747Z,100842.14
2019-05-20T20:10:05.735Z,100844.98
2019-05-20T20:12:36.352Z,100846.82
2019-05-20T20:15:06.652Z,100841.55
2019-05-20T20:17:36.150Z,100841.55
2019-05-20T20:20:05.983Z,100835.94
2019-05-20T20:22:35.470Z,100839.98
2019-05-20T20:25:05.265Z,100839.27
2019-05-20T20:27:34.825Z,100840.77
2019-05-20T20:30:04.450Z,100841.75
2019-05-20T20:32:37.786Z,100840.55
2019-05-20T20:35:05.780Z,100847.77
2019-05-20T20:37:35.398Z,100849.61
2019-05-20T20:40:05.220Z,100849.23
2019-05-20T20:42:34.674Z,100851.22
2019-05-20T20:45:04.462Z,100855.75
2019-05-20T20:47:41.711Z,100848.19
2019-05-20T20:50:05.506Z,100849.66
2019-05-20T20:52:34.946Z,100839.03
2019-05-20T20:55:04.495Z,100835.62
2019-05-20T20:57:34.030Z,100841.50
2019-05-20T21:00:03.584Z,100831.85
2019-05-20T21:02:33.042Z,100834.66
2019-05-20T21:05:02.575Z,100835.67
2019-05-20T21:07:32.124Z,100834.92
2019-05-20T21:10:01.591Z,100829.05
2019-05-20T21:12:31.140Z,100827.48
2019-05-20T21:15:00.613Z,100833.87
2019-05-20T21:17:30.188Z,100833.50
2019-05-20T21:19:59.654Z,100832.31
2019-05-20T21:22:29.195Z,100831.45
2019-05-20T21:24:58.691Z,100841.84
2019-05-20T21:27:28.196Z,100831.98
2019-05-20T21:29:57.678Z,100838.08
2019-05-20T21:32:27.163Z,100835.90
2019-05-20T21:34:56.671Z,100837.73
2019-05-20T21:37:26.200Z,100840.91
2019-05-20T21:39:55.677Z,100839.68
2019-05-20T21:42:25.135Z,100841.55
2019-05-20T21:44:54.661Z,100833.59
2019-05-20T21:47:24.187Z,100839.46
2019-05-20T21:49:53.763Z,100842.15
2019-05-20T21:52:23.225Z,100832.84
2019-05-20T21:54:52.866Z,100833.73
2019-05-20T21:57:22.362Z,100836.87
2019-05-20T21:59:51.768Z,100845.45
2019-05-20T22:02:21.343Z,100840.20
2019-05-20T22:04:50.842Z,100835.31
2019-05-20T22:07:20.307Z,100838.00
2019-05-20T22:09:49.898Z,100844.36
2019-05-20T22:12:19.406Z,100842.53
2019-05-20T22:14:48.942Z,100837.63
2019-05-20T22:17:18.442Z,100839.98
2019-05-20T22:19:47.911Z,100832.02
2019-05-20T22:22:29.405Z,100838.27
2019-05-20T22:24:58.911Z,100834.71
2019-05-20T22:27:28.393Z,100826.78
2019-05-20T22:29:57.922Z,100837.17
2019-05-20T22:32:27.331Z,100833.52
2019-05-20T22:34:56.851Z,100831.45
2019-05-20T22:37:26.327Z,100828.24
2019-05-20T22:39:55.803Z,100825.21
2019-05-20T22:42:25.316Z,100825.70
2019-05-20T22:44:54.751Z,100824.36
2019-05-20T22:47:24.198Z,100819.61
2019-05-20T22:49:53.779Z,100818.75
2019-05-20T22:52:23.252Z,100815.69
2019-05-20T22:54:52.716Z,100814.86
2019-05-20T22:57:22.220Z,100816.69
2019-05-20T22:59:51.704Z,100821.22
2019-05-20T23:02:21.254Z,100831.12
2019-05-20T23:04:50.767Z,100828.09
2019-05-20T23:07:20.218Z,100822.70
2019-05-20T23:09:49.685Z,100820.02
2019-05-20T23:12:19.226Z,100811.94
2019-05-20T23:14:48.698Z,100807.91
2019-05-20T23:17:18.309Z,100811.08
2019-05-20T23:19:47.888Z,100808.88
2019-05-20T23:22:17.334Z,100808.02
2019-05-20T23:24:46.801Z,100809.84
2019-05-20T23:27:16.313Z,100810.85
2019-05-20T23:29:45.798Z,100805.95
2019-05-20T23:32:15.264Z,100801.06
2019-05-20T23:34:44.829Z,100794.82
2019-05-20T23:37:14.378Z,100782.03
2019-05-20T23:39:43.798Z,100788.61
2019-05-20T23:42:13.371Z,100782.86
2019-05-20T23:44:42.898Z,100785.17
2019-05-20T23:47:12.340Z,100780.80
2019-05-20T23:49:41.903Z,100780.42
2019-05-20T23:52:11.491Z,100773.33
2019-05-20T23:54:40.962Z,100775.68
2019-05-20T23:57:10.421Z,100774.33
2019-05-20T23:59:39.939Z,100772.61
